createdAt,value
2019-03-29T00:00:48.251Z,9.37
2019-03-29T00:02:59.095Z,9.30
2019-03-29T00:05:09.958Z,9.26
2019-03-29T00:07:20.812Z,9.15
2019-03-29T00:09:31.685Z,9.08
2019-03-29T00:11:42.525Z,9.06
2019-03-29T00:13:53.499Z,9.11
2019-03-29T00:16:04.443Z,9.12
2019-03-29T00:18:15.285Z,9.10
2019-03-29T00:20:26.150Z,9.07
2019-03-29T00:22:36.995Z,9.03
2019-03-29T00:24:47.873Z,8.83
2019-03-29T00:26:58.710Z,8.77
2019-03-29T00:29:09.554Z,8.75
2019-03-29T00:31:20.450Z,8.73
2019-03-29T00:33:31.289Z,8.74
2019-03-29T00:35:42.136Z,8.79
2019-03-29T00:37:54.941Z,8.77
2019-03-29T00:40:07.011Z,8.73
2019-03-29T00:42:18.022Z,8.74
2019-03-29T00:44:28.854Z,8.74
2019-03-29T00:46:39.822Z,8.76
2019-03-29T00:48:50.761Z,8.74
2019-03-29T00:51:01.616Z,8.71
2019-03-29T00:53:12.456Z,8.68
2019-03-29T00:55:23.286Z,8.69
2019-03-29T00:57:34.168Z,8.68
2019-03-29T00:59:45.026Z,8.55
2019-03-29T01:01:55.892Z,8.57
2019-03-29T01:04:06.737Z,8.59
2019-03-29T01:06:17.657Z,8.57
2019-03-29T01:08:28.498Z,8.56
2019-03-29T01:10:39.362Z,8.56
2019-03-29T01:12:50.229Z,8.61
2019-03-29T01:15:01.078Z,8.65
2019-03-29T01:17:11.938Z,8.64
2019-03-29T01:19:22.796Z,8.66
2019-03-29T01:21:33.633Z,8.72
2019-03-29T01:23:44.478Z,8.78
2019-03-29T01:25:55.427Z,8.83
2019-03-29T01:28:06.387Z,8.87
2019-03-29T01:30:17.307Z,8.85
2019-03-29T01:32:28.181Z,8.83
2019-03-29T01:34:39.013Z,8.81
2019-03-29T01:36:49.864Z,8.79
2019-03-29T01:39:00.733Z,8.79
2019-03-29T01:41:11.597Z,8.79
2019-03-29T01:43:22.427Z,8.78
2019-03-29T01:45:33.258Z,8.82
2019-03-29T01:47:44.125Z,8.85
2019-03-29T01:49:54.967Z,8.87
2019-03-29T01:52:05.802Z,8.92
2019-03-29T01:54:16.699Z,8.90
2019-03-29T01:56:27.489Z,8.91
2019-03-29T01:58:38.387Z,8.89
2019-03-29T02:00:49.255Z,8.88
2019-03-29T02:03:00.211Z,8.84
2019-03-29T02:05:11.051Z,8.83
2019-03-29T02:07:21.887Z,8.81
2019-03-29T02:09:32.752Z,8.82
2019-03-29T02:11:43.582Z,8.82
2019-03-29T02:13:54.449Z,8.84
2019-03-29T02:16:05.290Z,8.91
2019-03-29T02:18:16.245Z,8.90
2019-03-29T02:20:27.098Z,8.83
2019-03-29T02:22:37.936Z,8.83
2019-03-29T02:24:49.942Z,8.84
2019-03-29T02:27:01.223Z,8.85
2019-03-29T02:29:12.194Z,8.87
2019-03-29T02:31:25.814Z,8.84
2019-03-29T02:33:35.765Z,8.81
2019-03-29T02:35:46.632Z,8.74
2019-03-29T02:37:57.482Z,8.72
2019-03-29T02:40:08.438Z,8.74
2019-03-29T02:42:19.264Z,8.71
2019-03-29T02:44:30.119Z,8.69
2019-03-29T02:46:40.955Z,8.67
2019-03-29T02:48:51.806Z,8.65
2019-03-29T02:51:04.440Z,8.63
2019-03-29T02:53:15.717Z,8.66
2019-03-29T02:55:26.664Z,8.68
2019-03-29T02:57:37.549Z,8.69
2019-03-29T02:59:48.443Z,8.68
2019-03-29T03:01:59.290Z,8.60
2019-03-29T03:04:10.120Z,8.53
2019-03-29T03:06:20.997Z,8.49
2019-03-29T03:08:33.113Z,8.44
2019-03-29T03:10:44.197Z,8.39
2019-03-29T03:12:55.041Z,8.32
2019-03-29T03:15:06.173Z,8.31
2019-03-29T03:17:17.051Z,8.24
2019-03-29T03:19:27.885Z,8.22
2019-03-29T03:21:38.748Z,8.20
2019-03-29T03:23:49.596Z,8.21
2019-03-29T03:26:00.449Z,8.14
2019-03-29T03:28:11.302Z,8.11
2019-03-29T03:30:22.174Z,8.11
2019-03-29T03:32:33.021Z,8.08
2019-03-29T03:34:43.862Z,8.02
2019-03-29T03:36:54.713Z,7.99
2019-03-29T03:39:06.261Z,7.97
2019-03-29T03:41:17.210Z,7.92
2019-03-29T03:43:28.260Z,7.91
2019-03-29T03:45:39.215Z,7.83
2019-03-29T03:47:50.046Z,7.80
2019-03-29T03:50:01.724Z,7.77
2019-03-29T03:52:12.955Z,7.75
2019-03-29T03:54:23.897Z,7.76
2019-03-29T03:56:35.585Z,7.72
2019-03-29T03:58:46.548Z,7.69
2019-03-29T04:00:57.382Z,7.60
2019-03-29T04:03:08.246Z,7.58
2019-03-29T04:05:19.087Z,7.60
2019-03-29T04:07:29.936Z,7.65
2019-03-29T04:09:49.360Z,7.59
2019-03-29T04:11:53.558Z,7.41
2019-03-29T04:14:04.591Z,7.25
2019-03-29T04:16:15.454Z,7.15
2019-03-29T04:18:26.319Z,6.94
2019-03-29T04:20:37.174Z,6.82
2019-03-29T04:22:48.038Z,6.82
2019-03-29T04:24:58.878Z,6.61
2019-03-29T04:27:09.713Z,6.54
2019-03-29T04:29:20.680Z,6.60
2019-03-29T04:31:31.513Z,6.66
2019-03-29T04:33:42.458Z,6.68
2019-03-29T04:35:53.413Z,6.71
2019-03-29T04:38:04.364Z,6.76
2019-03-29T04:40:15.290Z,6.79
2019-03-29T04:42:26.167Z,6.80
2019-03-29T04:44:37.046Z,6.70
2019-03-29T04:46:47.890Z,6.61
2019-03-29T04:48:58.741Z,6.55
2019-03-29T04:51:09.577Z,6.54
2019-03-29T04:53:20.432Z,6.53
2019-03-29T04:55:31.392Z,6.53
2019-03-29T04:57:42.233Z,6.56
2019-03-29T04:59:53.124Z,6.59
2019-03-29T05:02:03.968Z,6.61
2019-03-29T05:04:14.804Z,6.53
2019-03-29T05:06:25.669Z,6.30
2019-03-29T05:08:36.506Z,6.17
2019-03-29T05:10:47.454Z,6.02
2019-03-29T05:12:59.652Z,5.94
2019-03-29T05:15:10.818Z,5.83
2019-03-29T05:17:21.728Z,5.73
2019-03-29T05:19:32.710Z,5.65
2019-03-29T05:21:43.564Z,5.61
2019-03-29T05:23:54.492Z,5.51
2019-03-29T05:26:05.354Z,5.51
2019-03-29T05:28:16.196Z,5.48
2019-03-29T05:30:27.054Z,5.57
2019-03-29T05:32:37.917Z,5.76
2019-03-29T05:34:48.745Z,5.86
2019-03-29T05:36:59.660Z,5.97
2019-03-29T05:39:10.494Z,6.06
2019-03-29T05:41:21.332Z,6.14
2019-03-29T05:43:32.204Z,6.31
2019-03-29T05:45:43.063Z,6.41
2019-03-29T05:47:53.913Z,6.53
2019-03-29T05:50:06.058Z,6.84
2019-03-29T05:52:16.909Z,7.16
2019-03-29T05:54:27.746Z,7.40
2019-03-29T05:56:38.614Z,7.81
2019-03-29T05:58:49.519Z,7.81
2019-03-29T06:01:00.361Z,7.91
2019-03-29T06:03:11.250Z,8.19
2019-03-29T06:05:22.107Z,8.60
2019-03-29T06:07:32.952Z,8.98
2019-03-29T06:09:43.802Z,9.40
2019-03-29T06:11:54.670Z,9.92
2019-03-29T06:14:05.508Z,10.41
2019-03-29T06:16:16.358Z,10.96
2019-03-29T06:18:27.218Z,11.46
2019-03-29T06:20:38.050Z,11.90
2019-03-29T06:22:48.905Z,12.46
2019-03-29T06:24:59.771Z,12.82
2019-03-29T06:27:10.606Z,13.05
2019-03-29T06:29:21.466Z,13.43
2019-03-29T06:31:32.302Z,13.85
2019-03-29T06:33:44.722Z,14.01
2019-03-29T06:35:56.415Z,14.08
2019-03-29T06:38:07.753Z,14.27
2019-03-29T06:40:23.700Z,14.12
2019-03-29T06:42:34.538Z,14.38
2019-03-29T06:44:45.409Z,14.59
2019-03-29T06:46:56.346Z,14.54
2019-03-29T06:49:07.216Z,14.68
2019-03-29T06:51:18.047Z,14.71
2019-03-29T06:53:28.986Z,14.63
2019-03-29T06:55:39.848Z,14.79
2019-03-29T06:57:50.707Z,14.74
2019-03-29T07:00:01.694Z,14.89
2019-03-29T07:02:12.522Z,15.01
2019-03-29T07:04:23.388Z,15.23
2019-03-29T07:06:34.212Z,15.20
2019-03-29T07:08:45.056Z,15.52
2019-03-29T07:10:55.926Z,15.81
2019-03-29T07:13:06.777Z,15.96
2019-03-29T07:15:17.637Z,16.03
2019-03-29T07:17:28.483Z,15.99
2019-03-29T07:19:39.341Z,15.75
2019-03-29T07:21:50.179Z,15.54
2019-03-29T07:24:01.127Z,15.67
2019-03-29T07:26:11.984Z,15.65
2019-03-29T07:28:22.824Z,15.51
2019-03-29T07:30:33.688Z,15.48
2019-03-29T07:32:44.539Z,15.69
2019-03-29T07:34:55.399Z,15.70
2019-03-29T07:37:06.354Z,15.69
2019-03-29T07:39:17.178Z,15.59
2019-03-29T07:41:32.268Z,15.78
2019-03-29T07:43:40.772Z,16.06
2019-03-29T07:45:51.772Z,16.43
2019-03-29T07:48:02.709Z,16.69
2019-03-29T07:50:13.770Z,16.64
2019-03-29T07:52:24.606Z,16.72
2019-03-29T07:54:35.472Z,16.86
2019-03-29T07:56:46.335Z,16.94
2019-03-29T07:58:57.193Z,17.08
2019-03-29T08:01:08.474Z,17.11
2019-03-29T08:03:21.364Z,17.08
2019-03-29T08:05:35.201Z,16.98
2019-03-29T08:07:45.198Z,17.09
2019-03-29T08:09:56.135Z,17.08
2019-03-29T08:12:06.994Z,17.03
2019-03-29T08:14:17.837Z,17.32
2019-03-29T08:16:28.698Z,17.46
2019-03-29T08:18:39.536Z,17.38
2019-03-29T08:20:50.381Z,17.44
2019-03-29T08:23:01.233Z,17.35
2019-03-29T08:25:12.170Z,17.37
2019-03-29T08:27:23.131Z,17.28
2019-03-29T08:29:33.970Z,17.22
2019-03-29T08:31:44.920Z,17.50
2019-03-29T08:33:55.754Z,17.52
2019-03-29T08:36:06.624Z,17.61
2019-03-29T08:38:17.487Z,17.53
2019-03-29T08:40:28.334Z,17.76
2019-03-29T08:42:39.201Z,17.48
2019-03-29T08:44:50.059Z,17.57
2019-03-29T08:47:00.923Z,17.88
2019-03-29T08:49:11.844Z,18.00
2019-03-29T08:51:22.772Z,17.99
2019-03-29T08:53:33.634Z,17.74
2019-03-29T08:55:46.001Z,17.65
2019-03-29T08:57:57.344Z,17.64
2019-03-29T09:00:08.434Z,17.56
2019-03-29T09:02:19.428Z,17.62
2019-03-29T09:04:30.245Z,17.59
2019-03-29T09:06:52.579Z,17.34
2019-03-29T09:08:53.968Z,17.08
2019-03-29T09:11:07.641Z,17.53
2019-03-29T09:13:17.993Z,17.63
2019-03-29T09:15:28.938Z,17.66
2019-03-29T09:17:39.775Z,17.85
2019-03-29T09:19:50.642Z,17.52
2019-03-29T09:22:01.473Z,17.37
2019-03-29T09:24:21.996Z,17.15
2019-03-29T09:26:25.193Z,17.09
2019-03-29T09:28:36.050Z,16.88
2019-03-29T09:30:46.922Z,16.70
2019-03-29T09:32:57.778Z,17.05
2019-03-29T09:35:08.851Z,17.47
2019-03-29T09:37:19.680Z,17.72
2019-03-29T09:39:30.556Z,17.61
2019-03-29T09:41:41.396Z,17.42
2019-03-29T09:43:54.190Z,17.47
2019-03-29T09:46:05.113Z,17.59
2019-03-29T09:48:15.960Z,18.05
2019-03-29T09:50:26.918Z,18.40
2019-03-29T09:52:37.872Z,18.62
2019-03-29T09:54:48.826Z,18.59
2019-03-29T09:56:59.673Z,18.36
2019-03-29T09:59:10.526Z,18.62
2019-03-29T10:01:21.541Z,18.86
2019-03-29T10:03:32.454Z,18.98
2019-03-29T10:05:43.308Z,19.16
2019-03-29T10:07:54.314Z,19.05
2019-03-29T10:10:05.293Z,19.15
2019-03-29T10:12:16.133Z,19.16
2019-03-29T10:14:26.956Z,18.96
2019-03-29T10:16:37.844Z,18.70
2019-03-29T10:18:48.685Z,18.43
2019-03-29T10:20:59.574Z,18.34
2019-03-29T10:23:10.480Z,18.04
2019-03-29T10:25:21.817Z,18.18
2019-03-29T10:27:32.736Z,18.49
2019-03-29T10:29:43.688Z,18.54
2019-03-29T10:31:54.651Z,18.66
2019-03-29T10:34:05.488Z,18.70
2019-03-29T10:36:16.346Z,18.80
2019-03-29T10:38:27.290Z,18.92
2019-03-29T10:40:38.235Z,18.79
2019-03-29T10:42:57.800Z,19.00
2019-03-29T10:45:02.371Z,18.94
2019-03-29T10:47:13.257Z,18.65
2019-03-29T10:49:24.214Z,18.51
2019-03-29T10:51:35.051Z,18.20
2019-03-29T10:53:45.884Z,18.26
2019-03-29T10:55:56.747Z,18.25
2019-03-29T10:58:09.689Z,18.17
2019-03-29T11:00:34.711Z,18.24
2019-03-29T11:02:45.571Z,18.16
2019-03-29T11:04:56.405Z,18.18
2019-03-29T11:07:07.570Z,18.13
2019-03-29T11:09:18.404Z,17.97
2019-03-29T11:11:29.382Z,17.95
2019-03-29T11:13:41.188Z,18.28
2019-03-29T11:15:52.397Z,18.48
2019-03-29T11:18:04.164Z,18.22
2019-03-29T11:20:18.526Z,18.19
2019-03-29T11:22:28.620Z,17.84
2019-03-29T11:24:39.452Z,17.74
2019-03-29T11:26:50.327Z,17.58
2019-03-29T11:29:01.255Z,17.47
2019-03-29T11:31:12.207Z,17.78
2019-03-29T11:33:23.176Z,18.01
2019-03-29T11:35:34.213Z,18.21
2019-03-29T11:37:45.078Z,18.48
2019-03-29T11:39:55.913Z,18.60
2019-03-29T11:42:06.769Z,18.64
2019-03-29T11:44:17.665Z,18.82
2019-03-29T11:46:28.512Z,18.94
2019-03-29T11:48:39.396Z,19.08
2019-03-29T11:50:50.341Z,19.26
2019-03-29T11:53:01.193Z,19.06
2019-03-29T11:55:12.039Z,18.61
2019-03-29T11:57:22.884Z,18.54
2019-03-29T11:59:33.763Z,18.37
2019-03-29T12:01:44.615Z,18.08
2019-03-29T12:03:55.487Z,18.08
2019-03-29T12:06:06.525Z,18.25
2019-03-29T12:08:17.583Z,18.50
2019-03-29T12:10:28.430Z,18.39
2019-03-29T12:12:39.260Z,18.30
2019-03-29T12:14:50.113Z,18.46
2019-03-29T12:17:00.958Z,18.57
2019-03-29T12:19:11.937Z,18.60
2019-03-29T12:21:22.878Z,18.64
2019-03-29T12:23:33.730Z,18.47
2019-03-29T12:25:44.707Z,18.27
2019-03-29T12:27:55.620Z,18.26
2019-03-29T12:30:07.201Z,18.35
2019-03-29T12:32:18.040Z,18.35
2019-03-29T12:34:28.910Z,18.50
2019-03-29T12:36:39.752Z,18.52
2019-03-29T12:38:50.601Z,18.44
2019-03-29T12:41:01.466Z,18.48
2019-03-29T12:43:12.838Z,18.47
2019-03-29T12:45:23.783Z,18.52
2019-03-29T12:47:34.730Z,18.42
2019-03-29T12:49:45.623Z,18.46
2019-03-29T12:51:56.487Z,18.43
2019-03-29T12:54:07.435Z,18.29
2019-03-29T12:56:18.312Z,18.28
2019-03-29T12:58:29.148Z,18.31
2019-03-29T13:00:40.143Z,18.29
2019-03-29T13:02:50.977Z,18.34
2019-03-29T13:05:02.163Z,18.31
2019-03-29T13:07:13.111Z,18.07
2019-03-29T13:09:24.060Z,18.06
2019-03-29T13:11:35.013Z,18.09
2019-03-29T13:13:45.862Z,18.12
2019-03-29T13:15:56.739Z,18.06
2019-03-29T13:18:07.579Z,18.12
2019-03-29T13:20:18.854Z,18.02
2019-03-29T13:22:29.937Z,18.07
2019-03-29T13:24:40.768Z,18.13
2019-03-29T13:26:54.265Z,18.15
2019-03-29T13:29:04.677Z,18.11
2019-03-29T13:31:15.553Z,18.01
2019-03-29T13:33:26.505Z,17.81
2019-03-29T13:35:37.389Z,17.80
2019-03-29T13:37:48.230Z,17.66
2019-03-29T13:39:59.169Z,17.64
2019-03-29T13:42:10.025Z,17.57
2019-03-29T13:44:24.057Z,17.57
2019-03-29T13:46:33.625Z,17.62
2019-03-29T13:48:44.476Z,17.56
2019-03-29T13:50:55.329Z,17.52
2019-03-29T13:53:06.220Z,17.51
2019-03-29T13:55:17.265Z,17.51
2019-03-29T13:57:28.129Z,17.55
2019-03-29T13:59:39.091Z,17.55
2019-03-29T14:01:49.964Z,17.55
2019-03-29T14:04:00.814Z,17.33
2019-03-29T14:06:11.753Z,17.25
2019-03-29T14:08:22.619Z,17.33
2019-03-29T14:10:33.477Z,17.39
2019-03-29T14:12:44.344Z,17.40
2019-03-29T14:14:55.197Z,17.39
2019-03-29T14:17:06.056Z,17.40
2019-03-29T14:19:16.928Z,17.48
2019-03-29T14:21:27.803Z,17.47
2019-03-29T14:23:38.653Z,17.47
2019-03-29T14:25:49.540Z,17.43
2019-03-29T14:28:00.421Z,17.37
2019-03-29T14:30:13.261Z,17.37
2019-03-29T14:32:24.316Z,17.39
2019-03-29T14:34:36.015Z,17.43
2019-03-29T14:36:46.884Z,17.46
2019-03-29T14:38:57.769Z,17.53
2019-03-29T14:41:08.741Z,17.58
2019-03-29T14:43:19.588Z,17.64
2019-03-29T14:45:30.516Z,17.67
2019-03-29T14:47:43.550Z,17.55
2019-03-29T14:49:54.174Z,17.55
2019-03-29T14:52:05.032Z,17.55
2019-03-29T14:54:15.901Z,17.56
2019-03-29T14:56:26.765Z,17.52
2019-03-29T14:58:37.627Z,17.52
2019-03-29T15:00:49.071Z,17.46
2019-03-29T15:03:00.137Z,17.50
2019-03-29T15:05:11.108Z,17.45
2019-03-29T15:07:22.162Z,17.52
2019-03-29T15:09:33.527Z,17.42
2019-03-29T15:11:44.386Z,17.48
2019-03-29T15:13:55.255Z,17.34
2019-03-29T15:16:06.091Z,17.32
2019-03-29T15:18:16.926Z,17.30
2019-03-29T15:20:27.784Z,17.33
2019-03-29T15:22:38.744Z,17.35
2019-03-29T15:24:49.597Z,17.41
2019-03-29T15:27:00.543Z,17.51
2019-03-29T15:29:11.393Z,17.48
2019-03-29T15:31:22.232Z,17.46
2019-03-29T15:33:33.064Z,17.53
2019-03-29T15:35:44.150Z,17.55
2019-03-29T15:37:55.017Z,17.51
2019-03-29T15:40:06.012Z,17.45
2019-03-29T15:42:16.969Z,17.52
2019-03-29T15:44:27.810Z,17.53
2019-03-29T15:46:38.677Z,17.44
2019-03-29T15:48:49.530Z,17.44
2019-03-29T15:51:00.532Z,17.45
2019-03-29T15:53:11.469Z,17.49
2019-03-29T15:55:22.401Z,17.44
2019-03-29T15:57:33.283Z,17.45
2019-03-29T15:59:44.159Z,17.38
2019-03-29T16:01:55.043Z,17.31
2019-03-29T16:04:05.891Z,17.32
2019-03-29T16:06:16.957Z,17.38
2019-03-29T16:08:27.911Z,17.35
2019-03-29T16:10:41.253Z,17.36
2019-03-29T16:12:51.534Z,17.34
2019-03-29T16:15:04.773Z,17.35
2019-03-29T16:17:15.667Z,17.37
2019-03-29T16:19:26.540Z,17.32
2019-03-29T16:21:37.392Z,17.34
2019-03-29T16:23:48.226Z,17.35
2019-03-29T16:25:59.097Z,17.32
2019-03-29T16:28:10.005Z,17.20
2019-03-29T16:30:20.935Z,17.20
2019-03-29T16:32:31.806Z,17.21
2019-03-29T16:34:42.650Z,17.12
2019-03-29T16:36:53.539Z,17.08
2019-03-29T16:39:07.472Z,17.02
2019-03-29T16:41:18.320Z,17.08
2019-03-29T16:43:29.195Z,17.04
2019-03-29T16:45:47.719Z,17.06
2019-03-29T16:47:52.917Z,16.97
2019-03-29T16:50:06.052Z,16.96
2019-03-29T16:52:16.949Z,16.88
2019-03-29T16:54:27.888Z,16.86
2019-03-29T16:56:38.773Z,16.82
2019-03-29T16:58:49.745Z,16.81
2019-03-29T17:01:00.627Z,16.79
2019-03-29T17:03:11.517Z,16.79
2019-03-29T17:05:22.353Z,16.78
2019-03-29T17:07:33.235Z,16.74
2019-03-29T17:09:44.187Z,16.67
2019-03-29T17:11:55.166Z,16.64
2019-03-29T17:14:06.031Z,16.57
2019-03-29T17:16:29.414Z,16.56
2019-03-29T17:18:29.967Z,16.53
2019-03-29T17:20:40.828Z,16.46
2019-03-29T17:22:51.799Z,16.46
2019-03-29T17:25:05.195Z,16.43
2019-03-29T17:27:16.025Z,16.40
2019-03-29T17:29:26.889Z,16.35
2019-03-29T17:31:37.736Z,16.32
2019-03-29T17:33:48.623Z,16.28
2019-03-29T17:35:59.463Z,16.21
2019-03-29T17:38:10.407Z,16.18
2019-03-29T17:40:21.309Z,16.08
2019-03-29T17:42:32.183Z,15.99
2019-03-29T17:44:43.340Z,15.93
2019-03-29T17:46:54.184Z,15.88
2019-03-29T17:49:05.029Z,15.75
2019-03-29T17:51:15.894Z,15.57
2019-03-29T17:53:26.843Z,15.39
2019-03-29T17:55:37.747Z,15.28
2019-03-29T17:57:48.597Z,15.11
2019-03-29T17:59:59.484Z,14.90
2019-03-29T18:02:10.328Z,14.72
2019-03-29T18:04:21.201Z,14.51
2019-03-29T18:06:32.072Z,14.36
2019-03-29T18:08:42.930Z,14.23
2019-03-29T18:10:53.814Z,14.09
2019-03-29T18:13:04.679Z,13.92
2019-03-29T18:15:15.962Z,13.87
2019-03-29T18:17:26.817Z,13.73
2019-03-29T18:19:37.843Z,13.69
2019-03-29T18:21:48.710Z,13.63
2019-03-29T18:23:59.580Z,13.65
2019-03-29T18:26:10.556Z,13.63
2019-03-29T18:28:21.435Z,13.53
2019-03-29T18:30:35.239Z,13.45
2019-03-29T18:32:46.224Z,13.36
2019-03-29T18:34:57.182Z,13.31
2019-03-29T18:37:08.060Z,13.30
2019-03-29T18:39:19.904Z,13.22
2019-03-29T18:41:30.890Z,13.18
2019-03-29T18:43:41.738Z,13.07
2019-03-29T18:45:52.703Z,13.03
2019-03-29T18:48:03.783Z,12.94
2019-03-29T18:50:14.633Z,12.89
2019-03-29T18:52:25.504Z,12.82
2019-03-29T18:54:36.447Z,12.68
2019-03-29T18:56:47.425Z,12.62
2019-03-29T18:58:58.270Z,12.58
2019-03-29T19:01:09.169Z,12.56
2019-03-29T19:03:20.136Z,12.51
2019-03-29T19:05:31.336Z,12.48
2019-03-29T19:07:42.174Z,12.44
2019-03-29T19:09:53.126Z,12.39
2019-03-29T19:12:04.012Z,12.31
2019-03-29T19:14:14.854Z,12.23
2019-03-29T19:16:25.723Z,12.17
2019-03-29T19:18:36.709Z,12.09
2019-03-29T19:20:47.681Z,12.02
2019-03-29T19:22:58.664Z,11.95
2019-03-29T19:25:09.703Z,11.93
2019-03-29T19:27:20.593Z,11.89
2019-03-29T19:29:31.487Z,11.78
2019-03-29T19:31:42.447Z,11.70
2019-03-29T19:33:53.291Z,11.66
2019-03-29T19:36:04.263Z,11.62
2019-03-29T19:38:15.334Z,11.56
2019-03-29T19:40:26.180Z,11.58
2019-03-29T19:42:37.032Z,11.58
2019-03-29T19:44:47.907Z,11.63
2019-03-29T19:47:12.507Z,11.56
2019-03-29T19:49:11.564Z,11.54
2019-03-29T19:51:22.518Z,11.54
2019-03-29T19:53:34.476Z,11.52
2019-03-29T19:55:45.469Z,11.46
2019-03-29T19:57:56.362Z,11.40
2019-03-29T20:00:10.080Z,11.34
2019-03-29T20:02:21.090Z,11.27
2019-03-29T20:04:31.944Z,11.20
2019-03-29T20:06:42.791Z,11.12
2019-03-29T20:08:53.638Z,11.02
2019-03-29T20:11:04.697Z,10.97
2019-03-29T20:13:15.558Z,10.93
2019-03-29T20:15:26.601Z,10.90
2019-03-29T20:17:37.449Z,10.85
2019-03-29T20:19:48.414Z,10.78
2019-03-29T20:21:59.394Z,10.76
2019-03-29T20:24:10.261Z,10.71
2019-03-29T20:26:21.232Z,10.70
2019-03-29T20:28:32.191Z,10.71
2019-03-29T20:30:43.170Z,10.67
2019-03-29T20:32:54.024Z,10.59
2019-03-29T20:35:04.962Z,10.53
2019-03-29T20:37:15.841Z,10.47
2019-03-29T20:39:26.702Z,10.40
2019-03-29T20:41:37.672Z,10.38
2019-03-29T20:43:48.512Z,10.37
2019-03-29T20:45:59.415Z,10.37
2019-03-29T20:48:10.243Z,10.35
2019-03-29T20:50:21.219Z,10.36
2019-03-29T20:52:32.189Z,10.38
2019-03-29T20:54:43.125Z,10.42
2019-03-29T20:56:54.020Z,10.42
2019-03-29T20:59:04.953Z,10.38
2019-03-29T21:01:15.873Z,10.37
2019-03-29T21:03:26.748Z,10.33
2019-03-29T21:05:37.745Z,10.28
2019-03-29T21:07:48.628Z,10.26
2019-03-29T21:09:59.462Z,10.28
2019-03-29T21:12:10.338Z,10.34
2019-03-29T21:14:21.287Z,10.30
2019-03-29T21:16:32.349Z,10.21
2019-03-29T21:18:43.236Z,10.15
2019-03-29T21:20:54.079Z,10.13
2019-03-29T21:23:04.943Z,10.15
2019-03-29T21:25:15.896Z,10.17
2019-03-29T21:27:26.878Z,10.19
2019-03-29T21:29:37.732Z,10.25
2019-03-29T21:31:48.665Z,10.27
2019-03-29T21:33:59.560Z,10.25
2019-03-29T21:36:10.394Z,10.29
2019-03-29T21:38:23.155Z,10.29
2019-03-29T21:40:34.037Z,10.23
2019-03-29T21:42:45.007Z,10.22
2019-03-29T21:44:55.961Z,10.19
2019-03-29T21:47:06.933Z,10.18
2019-03-29T21:49:17.793Z,10.20
2019-03-29T21:51:28.661Z,10.16
2019-03-29T21:53:39.523Z,10.20
2019-03-29T21:55:50.358Z,10.20
2019-03-29T21:58:01.291Z,10.19
2019-03-29T22:00:12.674Z,10.17
2019-03-29T22:02:23.534Z,10.11
2019-03-29T22:04:34.417Z,10.07
2019-03-29T22:06:45.272Z,10.05
2019-03-29T22:08:56.158Z,10.08
2019-03-29T22:11:07.125Z,10.13
2019-03-29T22:13:18.079Z,10.08
2019-03-29T22:15:28.978Z,10.10
2019-03-29T22:17:39.828Z,10.13
2019-03-29T22:19:50.720Z,10.15
2019-03-29T22:22:01.569Z,10.10
2019-03-29T22:24:12.521Z,10.05
2019-03-29T22:26:23.376Z,10.04
2019-03-29T22:28:34.328Z,10.02
2019-03-29T22:30:45.178Z,10.06
2019-03-29T22:32:56.130Z,10.11
2019-03-29T22:35:07.726Z,10.11
2019-03-29T22:37:18.562Z,10.08
2019-03-29T22:39:29.406Z,10.04
2019-03-29T22:41:40.280Z,9.96
2019-03-29T22:43:51.160Z,9.86
2019-03-29T22:46:02.023Z,9.68
2019-03-29T22:48:12.882Z,9.57
2019-03-29T22:50:23.905Z,9.48
2019-03-29T22:52:34.831Z,9.41
2019-03-29T22:54:45.803Z,9.37
2019-03-29T22:56:56.679Z,9.38
2019-03-29T22:59:07.531Z,9.39
2019-03-29T23:01:18.530Z,9.43
2019-03-29T23:03:29.382Z,9.45
2019-03-29T23:05:40.244Z,9.51
2019-03-29T23:07:51.340Z,9.57
2019-03-29T23:10:04.664Z,9.56
2019-03-29T23:12:15.536Z,9.58
2019-03-29T23:14:26.400Z,9.56
2019-03-29T23:16:37.378Z,9.52
2019-03-29T23:18:48.324Z,9.51
2019-03-29T23:20:59.183Z,9.50
2019-03-29T23:23:10.044Z,9.45
2019-03-29T23:25:20.991Z,9.39
2019-03-29T23:27:31.861Z,9.08
2019-03-29T23:29:42.721Z,9.08
2019-03-29T23:31:53.603Z,8.99
2019-03-29T23:34:04.560Z,8.94
2019-03-29T23:36:15.406Z,8.74
2019-03-29T23:38:26.260Z,8.65
2019-03-29T23:40:37.110Z,8.62
2019-03-29T23:42:47.972Z,8.55
2019-03-29T23:44:58.929Z,8.43
2019-03-29T23:47:09.801Z,8.31
2019-03-29T23:49:21.621Z,8.21
2019-03-29T23:51:32.587Z,8.07
2019-03-29T23:53:43.463Z,8.03
2019-03-29T23:55:54.305Z,7.98
2019-03-29T23:58:05.167Z,7.89
